sensor_id;sensor_type;location;lat;lon;timestamp;pressure;altitude;pressure_sealevel;temperature;humidity
62011;BME280;47967;51.756;10.174;2023-04-28T04:03:34;99573.31;;;8.93;52.23
62011;BME280;47967;51.756;10.174;2023-04-28T04:07:37;99576.00;;;8.93;53.22
62011;BME280;47967;51.756;10.174;2023-04-28T04:11:40;99581.06;;;9.03;52.37
62011;BME280;47967;51.756;10.174;2023-04-28T04:15:42;99571.97;;;9.04;52.83
62011;BME280;47967;51.756;10.174;2023-04-28T04:19:46;99567.59;;;9.03;53.06
62011;BME280;47967;51.756;10.174;2023-04-28T04:23:49;99559.13;;;9.00;53.38
62011;BME280;47967;51.756;10.174;2023-04-28T04:27:52;99565.13;;;9.02;53.29
62011;BME280;47967;51.756;10.174;2023-04-28T04:31:54;99562.09;;;9.11;52.68
62011;BME280;47967;51.756;10.174;2023-04-28T04:35:59;99559.03;;;9.15;53.29
62011;BME280;47967;51.756;10.174;2023-04-28T04:40:03;99552.00;;;9.20;53.15
62011;BME280;47967;51.756;10.174;2023-04-28T04:44:12;99545.59;;;9.21;53.38
62011;BME280;47967;51.756;10.174;2023-04-28T04:48:18;99556.56;;;9.20;53.37
62011;BME280;47967;51.756;10.174;2023-04-28T04:52:22;99550.00;;;9.29;53.82
62011;BME280;47967;51.756;10.174;2023-04-28T04:56:25;99545.41;;;9.23;54.43
62011;BME280;47967;51.756;10.174;2023-04-28T05:00:28;99548.19;;;9.36;54.26
62011;BME280;47967;51.756;10.174;2023-04-28T05:04:30;99558.19;;;9.42;54.28
62011;BME280;47967;51.756;10.174;2023-04-28T05:08:34;99541.72;;;9.31;55.00
62011;BME280;47967;51.756;10.174;2023-04-28T05:12:37;99542.81;;;9.36;55.89
62011;BME280;47967;51.756;10.174;2023-04-28T05:16:40;99549.25;;;9.42;55.34
62011;BME280;47967;51.756;10.174;2023-04-28T05:20:55;99543.13;;;9.55;56.12
62011;BME280;47967;51.756;10.174;2023-04-28T05:24:59;99546.84;;;9.54;55.38
62011;BME280;47967;51.756;10.174;2023-04-28T05:29:02;99546.84;;;9.60;55.42
62011;BME280;47967;51.756;10.174;2023-04-28T05:33:04;99550.41;;;9.61;55.55
62011;BME280;47967;51.756;10.174;2023-04-28T05:37:07;99547.34;;;9.71;55.36
62011;BME280;47967;51.756;10.174;2023-04-28T05:41:14;99536.19;;;9.81;55.41
62011;BME280;47967;51.756;10.174;2023-04-28T05:45:17;99541.38;;;9.82;55.04
62011;BME280;47967;51.756;10.174;2023-04-28T05:49:20;99548.66;;;9.88;55.25
62011;BME280;47967;51.756;10.174;2023-04-28T05:53:23;99547.03;;;9.94;55.22
62011;BME280;47967;51.756;10.174;2023-04-28T05:57:27;99544.59;;;10.06;55.25
62011;BME280;47967;51.756;10.174;2023-04-28T06:01:36;99540.66;;;10.08;54.99
62011;BME280;47967;51.756;10.174;2023-04-28T06:05:44;99543.88;;;10.39;54.74
62011;BME280;47967;51.756;10.174;2023-04-28T06:09:48;99549.91;;;10.48;53.98
62011;BME280;47967;51.756;10.174;2023-04-28T06:13:52;99546.00;;;10.77;53.36
62011;BME280;47967;51.756;10.174;2023-04-28T06:17:55;99533.53;;;10.96;53.51
62011;BME280;47967;51.756;10.174;2023-04-28T06:21:57;99526.69;;;11.07;53.63
62011;BME280;47967;51.756;10.174;2023-04-28T06:26:00;99514.81;;;11.28;53.39
62011;BME280;47967;51.756;10.174;2023-04-28T06:30:05;99513.16;;;11.34;53.14
62011;BME280;47967;51.756;10.174;2023-04-28T06:34:08;99497.13;;;11.39;52.90
62011;BME280;47967;51.756;10.174;2023-04-28T06:38:10;99512.69;;;11.44;53.39
62011;BME280;47967;51.756;10.174;2023-04-28T06:42:13;99518.53;;;11.27;53.12
62011;BME280;47967;51.756;10.174;2023-04-28T06:46:27;99513.75;;;11.36;53.92
62011;BME280;47967;51.756;10.174;2023-04-28T06:50:30;99509.16;;;11.43;53.75
62011;BME280;47967;51.756;10.174;2023-04-28T06:54:33;99509.75;;;11.59;53.15
62011;BME280;47967;51.756;10.174;2023-04-28T06:58:35;99511.31;;;11.80;53.32
62011;BME280;47967;51.756;10.174;2023-04-28T07:02:39;99509.53;;;12.12;52.69
62011;BME280;47967;51.756;10.174;2023-04-28T07:06:42;99510.56;;;12.11;52.23
62011;BME280;47967;51.756;10.174;2023-04-28T07:10:45;99499.81;;;12.37;52.30
62011;BME280;47967;51.756;10.174;2023-04-28T07:14:47;99500.25;;;12.33;52.04
62011;BME280;47967;51.756;10.174;2023-04-28T07:18:52;99499.66;;;12.57;51.00
62011;BME280;47967;51.756;10.174;2023-04-28T07:22:54;99503.00;;;12.52;51.02
62011;BME280;47967;51.756;10.174;2023-04-28T07:26:57;99502.22;;;12.77;51.13
62011;BME280;47967;51.756;10.174;2023-04-28T07:30:59;99494.53;;;12.74;50.59
62011;BME280;47967;51.756;10.174;2023-04-28T07:35:04;99502.50;;;12.69;50.43
62011;BME280;47967;51.756;10.174;2023-04-28T07:39:07;99496.91;;;12.63;52.20
62011;BME280;47967;51.756;10.174;2023-04-28T07:43:10;99495.25;;;12.62;52.08
62011;BME280;47967;51.756;10.174;2023-04-28T07:47:12;99492.06;;;12.72;52.21
62011;BME280;47967;51.756;10.174;2023-04-28T07:51:16;99488.69;;;12.77;52.63
62011;BME280;47967;51.756;10.174;2023-04-28T07:55:19;99491.00;;;12.73;52.79
62011;BME280;47967;51.756;10.174;2023-04-28T07:59:21;99488.56;;;12.65;53.06
62011;BME280;47967;51.756;10.174;2023-04-28T08:03:24;99480.84;;;12.69;52.52
62011;BME280;47967;51.756;10.174;2023-04-28T08:07:28;99487.44;;;12.73;53.04
62011;BME280;47967;51.756;10.174;2023-04-28T08:11:31;99482.16;;;12.85;52.73
62011;BME280;47967;51.756;10.174;2023-04-28T08:15:34;99473.69;;;13.00;52.68
62011;BME280;47967;51.756;10.174;2023-04-28T08:19:37;99475.50;;;13.06;52.21
62011;BME280;47967;51.756;10.174;2023-04-28T08:23:41;99457.28;;;13.13;52.81
62011;BME280;47967;51.756;10.174;2023-04-28T08:27:44;99443.31;;;13.53;52.19
62011;BME280;47967;51.756;10.174;2023-04-28T08:31:46;99436.06;;;13.84;51.49
62011;BME280;47967;51.756;10.174;2023-04-28T08:35:49;99457.94;;;14.13;50.91
62011;BME280;47967;51.756;10.174;2023-04-28T08:39:53;99458.44;;;13.80;51.66
62011;BME280;47967;51.756;10.174;2023-04-28T08:44:06;99447.53;;;13.68;52.61
62011;BME280;47967;51.756;10.174;2023-04-28T08:48:16;99447.28;;;13.69;52.69
62011;BME280;47967;51.756;10.174;2023-04-28T08:52:21;99445.50;;;13.44;53.07
62011;BME280;47967;51.756;10.174;2023-04-28T08:56:31;99453.31;;;13.16;53.10
62011;BME280;47967;51.756;10.174;2023-04-28T09:00:36;99452.41;;;13.22;54.18
62011;BME280;47967;51.756;10.174;2023-04-28T09:04:38;99453.38;;;13.09;53.52
62011;BME280;47967;51.756;10.174;2023-04-28T09:08:41;99450.72;;;13.02;54.87
62011;BME280;47967;51.756;10.174;2023-04-28T09:12:46;99448.34;;;13.12;54.76
62011;BME280;47967;51.756;10.174;2023-04-28T09:16:50;99443.75;;;13.32;54.32
62011;BME280;47967;51.756;10.174;2023-04-28T09:21:01;99440.75;;;13.21;53.90
62011;BME280;47967;51.756;10.174;2023-04-28T09:25:10;99427.66;;;13.37;53.34
62011;BME280;47967;51.756;10.174;2023-04-28T09:29:14;99438.72;;;13.72;54.11
62011;BME280;47967;51.756;10.174;2023-04-28T09:33:16;99436.00;;;14.03;54.13
62011;BME280;47967;51.756;10.174;2023-04-28T09:37:20;99427.34;;;14.24;53.13
62011;BME280;47967;51.756;10.174;2023-04-28T09:41:34;99429.22;;;14.36;53.14
62011;BME280;47967;51.756;10.174;2023-04-28T09:45:39;99427.38;;;14.60;52.64
62011;BME280;47967;51.756;10.174;2023-04-28T09:49:52;99418.19;;;14.73;53.04
62011;BME280;47967;51.756;10.174;2023-04-28T09:53:58;99420.19;;;14.66;53.01
62011;BME280;47967;51.756;10.174;2023-04-28T09:58:04;99413.19;;;14.46;53.40
62011;BME280;47967;51.756;10.174;2023-04-28T10:02:09;99399.50;;;14.53;54.17
62011;BME280;47967;51.756;10.174;2023-04-28T10:06:33;99407.16;;;14.56;53.54
62011;BME280;47967;51.756;10.174;2023-04-28T10:10:38;99389.84;;;14.93;53.33
62011;BME280;47967;51.756;10.174;2023-04-28T10:14:41;99391.06;;;15.26;52.28
62011;BME280;47967;51.756;10.174;2023-04-28T10:18:46;99396.16;;;15.63;50.74
62011;BME280;47967;51.756;10.174;2023-04-28T10:22:57;99404.03;;;15.35;51.86
62011;BME280;47967;51.756;10.174;2023-04-28T10:27:07;99406.97;;;14.93;51.57
62011;BME280;47967;51.756;10.174;2023-04-28T10:31:11;99397.16;;;14.56;52.19
62011;BME280;47967;51.756;10.174;2023-04-28T10:35:41;99397.84;;;14.52;52.31
62011;BME280;47967;51.756;10.174;2023-04-28T10:44:40;99404.06;;;14.17;55.27
62011;BME280;47967;51.756;10.174;2023-04-28T10:48:54;99391.69;;;14.21;56.95
62011;BME280;47967;51.756;10.174;2023-04-28T10:52:58;99397.38;;;14.43;58.05
62011;BME280;47967;51.756;10.174;2023-04-28T10:57:28;99393.94;;;15.07;58.17
62011;BME280;47967;51.756;10.174;2023-04-28T11:01:31;99388.56;;;15.36;58.41
62011;BME280;47967;51.756;10.174;2023-04-28T11:05:35;99388.00;;;15.63;57.43
62011;BME280;47967;51.756;10.174;2023-04-28T11:09:48;99386.97;;;15.52;58.18
62011;BME280;47967;51.756;10.174;2023-04-28T11:13:54;99377.53;;;15.43;58.56
62011;BME280;47967;51.756;10.174;2023-04-28T11:17:58;99381.22;;;15.36;59.07
62011;BME280;47967;51.756;10.174;2023-04-28T11:22:04;99378.16;;;15.33;61.16
62011;BME280;47967;51.756;10.174;2023-04-28T11:26:13;99388.25;;;15.20;60.82
62011;BME280;47967;51.756;10.174;2023-04-28T11:30:19;99375.63;;;15.14;60.57
62011;BME280;47967;51.756;10.174;2023-04-28T11:34:23;99367.53;;;14.91;61.49
62011;BME280;47967;51.756;10.174;2023-04-28T11:38:26;99362.44;;;14.58;62.94
62011;BME280;47967;51.756;10.174;2023-04-28T11:42:30;99356.09;;;14.77;62.07
62011;BME280;47967;51.756;10.174;2023-04-28T11:46:34;99356.41;;;15.04;60.14
62011;BME280;47967;51.756;10.174;2023-04-28T11:50:37;99354.03;;;15.08;59.93
62011;BME280;47967;51.756;10.174;2023-04-28T11:54:39;99352.81;;;14.75;61.46
62011;BME280;47967;51.756;10.174;2023-04-28T11:58:45;99346.06;;;14.77;61.96
62011;BME280;47967;51.756;10.174;2023-04-28T12:02:48;99339.97;;;14.99;61.40
62011;BME280;47967;51.756;10.174;2023-04-28T12:06:57;99351.34;;;14.84;61.82
62011;BME280;47967;51.756;10.174;2023-04-28T12:11:07;99351.44;;;14.89;62.10
62011;BME280;47967;51.756;10.174;2023-04-28T12:15:12;99338.53;;;14.67;62.05
62011;BME280;47967;51.756;10.174;2023-04-28T12:19:15;99329.59;;;14.96;62.09
62011;BME280;47967;51.756;10.174;2023-04-28T12:23:28;99334.41;;;15.17;62.89
62011;BME280;47967;51.756;10.174;2023-04-28T12:27:30;99328.19;;;14.93;62.57
62011;BME280;47967;51.756;10.174;2023-04-28T12:31:47;99332.88;;;15.10;62.76
62011;BME280;47967;51.756;10.174;2023-04-28T12:35:52;99331.56;;;15.12;63.30
62011;BME280;47967;51.756;10.174;2023-04-28T12:39:56;99329.53;;;15.19;62.84
62011;BME280;47967;51.756;10.174;2023-04-28T12:43:58;99333.00;;;15.44;61.51
62011;BME280;47967;51.756;10.174;2023-04-28T12:48:04;99329.28;;;15.50;61.35
62011;BME280;47967;51.756;10.174;2023-04-28T12:52:06;99325.94;;;15.60;61.48
62011;BME280;47967;51.756;10.174;2023-04-28T12:56:09;99320.78;;;15.46;61.38
62011;BME280;47967;51.756;10.174;2023-04-28T13:00:12;99310.50;;;15.48;61.11
62011;BME280;47967;51.756;10.174;2023-04-28T13:04:18;99306.66;;;15.44;61.28
62011;BME280;47967;51.756;10.174;2023-04-28T13:08:21;99292.81;;;15.92;61.24
62011;BME280;47967;51.756;10.174;2023-04-28T13:12:23;99285.31;;;16.55;59.39
62011;BME280;47967;51.756;10.174;2023-04-28T13:16:26;99281.19;;;16.92;57.92
62011;BME280;47967;51.756;10.174;2023-04-28T13:20:32;99275.31;;;17.27;57.27
62011;BME280;47967;51.756;10.174;2023-04-28T13:24:34;99269.53;;;16.79;57.95
62011;BME280;47967;51.756;10.174;2023-04-28T13:28:40;99260.75;;;16.72;57.79
62011;BME280;47967;51.756;10.174;2023-04-28T13:32:42;99268.66;;;16.52;58.09
62011;BME280;47967;51.756;10.174;2023-04-28T13:36:47;99271.53;;;16.45;58.45
62011;BME280;47967;51.756;10.174;2023-04-28T13:40:51;99267.84;;;16.34;58.78
62011;BME280;47967;51.756;10.174;2023-04-28T13:44:53;99272.84;;;16.20;59.25
62011;BME280;47967;51.756;10.174;2023-04-28T13:48:56;99268.84;;;16.28;59.09
62011;BME280;47967;51.756;10.174;2023-04-28T13:53:00;99274.00;;;16.07;59.29
62011;BME280;47967;51.756;10.174;2023-04-28T13:57:03;99266.88;;;16.23;60.24
62011;BME280;47967;51.756;10.174;2023-04-28T14:01:06;99266.41;;;16.48;59.66
62011;BME280;47967;51.756;10.174;2023-04-28T14:05:08;99273.22;;;16.68;58.93
62011;BME280;47967;51.756;10.174;2023-04-28T14:09:13;99272.44;;;16.11;60.11
62011;BME280;47967;51.756;10.174;2023-04-28T14:13:16;99265.81;;;16.07;60.10
62011;BME280;47967;51.756;10.174;2023-04-28T14:17:19;99269.78;;;15.82;61.10
62011;BME280;47967;51.756;10.174;2023-04-28T14:21:21;99271.22;;;15.73;61.31
62011;BME280;47967;51.756;10.174;2023-04-28T14:25:25;99277.88;;;15.48;61.61
62011;BME280;47967;51.756;10.174;2023-04-28T14:29:28;99269.91;;;15.42;62.82
62011;BME280;47967;51.756;10.174;2023-04-28T14:33:30;99268.69;;;15.66;61.60
62011;BME280;47967;51.756;10.174;2023-04-28T14:37:33;99261.44;;;16.06;61.42
62011;BME280;47967;51.756;10.174;2023-04-28T14:41:37;99259.75;;;16.39;60.46
62011;BME280;47967;51.756;10.174;2023-04-28T14:45:40;99257.56;;;16.19;60.40
62011;BME280;47967;51.756;10.174;2023-04-28T14:49:42;99252.00;;;16.09;60.62
62011;BME280;47967;51.756;10.174;2023-04-28T14:53:45;99243.66;;;16.38;60.63
62011;BME280;47967;51.756;10.174;2023-04-28T14:57:50;99239.56;;;16.35;60.37
62011;BME280;47967;51.756;10.174;2023-04-28T15:01:53;99234.44;;;16.39;60.32
62011;BME280;47967;51.756;10.174;2023-04-28T15:05:56;99222.63;;;16.72;59.74
62011;BME280;47967;51.756;10.174;2023-04-28T15:09:59;99229.75;;;16.56;60.45
62011;BME280;47967;51.756;10.174;2023-04-28T15:14:03;99222.09;;;16.75;59.72
62011;BME280;47967;51.756;10.174;2023-04-28T15:18:06;99226.47;;;16.32;60.85
62011;BME280;47967;51.756;10.174;2023-04-28T15:22:10;99216.59;;;16.48;60.38
62011;BME280;47967;51.756;10.174;2023-04-28T15:26:13;99215.81;;;16.53;60.82
62011;BME280;47967;51.756;10.174;2023-04-28T15:30:17;99211.00;;;16.38;61.36
62011;BME280;47967;51.756;10.174;2023-04-28T15:34:20;99216.25;;;16.22;61.68
62011;BME280;47967;51.756;10.174;2023-04-28T15:38:22;99214.72;;;16.31;62.10
62011;BME280;47967;51.756;10.174;2023-04-28T15:42:25;99211.78;;;16.77;60.87
62011;BME280;47967;51.756;10.174;2023-04-28T15:46:30;99205.88;;;16.63;61.27
62011;BME280;47967;51.756;10.174;2023-04-28T15:50:34;99204.47;;;16.39;62.19
62011;BME280;47967;51.756;10.174;2023-04-28T15:54:37;99212.47;;;16.45;62.14
62011;BME280;47967;51.756;10.174;2023-04-28T15:58:40;99211.06;;;16.43;61.88
62011;BME280;47967;51.756;10.174;2023-04-28T16:02:45;99211.38;;;16.24;62.68
62011;BME280;47967;51.756;10.174;2023-04-28T16:06:47;99201.69;;;16.33;62.52
62011;BME280;47967;51.756;10.174;2023-04-28T16:10:52;99195.41;;;16.33;62.46
62011;BME280;47967;51.756;10.174;2023-04-28T16:14:54;99204.03;;;16.25;63.00
62011;BME280;47967;51.756;10.174;2023-04-28T16:18:59;99201.25;;;16.03;63.65
62011;BME280;47967;51.756;10.174;2023-04-28T16:23:01;99201.34;;;16.08;63.71
62011;BME280;47967;51.756;10.174;2023-04-28T16:27:04;99199.66;;;15.84;64.35
62011;BME280;47967;51.756;10.174;2023-04-28T16:31:08;99203.16;;;15.68;64.98
62011;BME280;47967;51.756;10.174;2023-04-28T16:35:12;99204.75;;;15.64;65.19
62011;BME280;47967;51.756;10.174;2023-04-28T16:39:17;99207.19;;;15.48;65.51
62011;BME280;47967;51.756;10.174;2023-04-28T16:43:19;99196.16;;;15.38;66.08
62011;BME280;47967;51.756;10.174;2023-04-28T16:47:22;99199.31;;;15.47;65.99
62011;BME280;47967;51.756;10.174;2023-04-28T16:51:26;99203.16;;;15.51;66.28
62011;BME280;47967;51.756;10.174;2023-04-28T16:55:29;99199.56;;;15.45;66.33
62011;BME280;47967;51.756;10.174;2023-04-28T16:59:31;99200.28;;;15.41;66.81
62011;BME280;47967;51.756;10.174;2023-04-28T17:03:34;99192.19;;;15.29;66.84
62011;BME280;47967;51.756;10.174;2023-04-28T17:07:43;99180.19;;;15.42;66.55
62011;BME280;47967;51.756;10.174;2023-04-28T17:11:46;99174.75;;;15.59;66.21
62011;BME280;47967;51.756;10.174;2023-04-28T17:15:52;99170.25;;;16.04;65.51
62011;BME280;47967;51.756;10.174;2023-04-28T17:19:55;99166.53;;;16.76;63.26
62011;BME280;47967;51.756;10.174;2023-04-28T17:24:01;99166.31;;;16.56;63.52
62011;BME280;47967;51.756;10.174;2023-04-28T17:28:04;99174.53;;;16.16;64.60
62011;BME280;47967;51.756;10.174;2023-04-28T17:32:07;99172.09;;;15.98;65.28
62011;BME280;47967;51.756;10.174;2023-04-28T17:36:09;99179.34;;;15.58;66.55
62011;BME280;47967;51.756;10.174;2023-04-28T17:40:13;99167.91;;;15.56;67.13
62011;BME280;47967;51.756;10.174;2023-04-28T17:44:16;99174.91;;;15.35;67.67
62011;BME280;47967;51.756;10.174;2023-04-28T17:48:19;99179.53;;;15.34;67.48
62011;BME280;47967;51.756;10.174;2023-04-28T17:52:21;99175.41;;;15.32;68.04
62011;BME280;47967;51.756;10.174;2023-04-28T17:56:26;99178.88;;;15.27;67.78
62011;BME280;47967;51.756;10.174;2023-04-28T18:00:28;99172.59;;;15.27;68.19
62011;BME280;47967;51.756;10.174;2023-04-28T18:04:31;99167.31;;;15.03;68.79
62011;BME280;47967;51.756;10.174;2023-04-28T18:08:34;99167.44;;;14.96;69.11
62011;BME280;47967;51.756;10.174;2023-04-28T18:12:38;99161.09;;;14.91;69.62
62011;BME280;47967;51.756;10.174;2023-04-28T18:16:41;99168.06;;;14.86;69.66
62011;BME280;47967;51.756;10.174;2023-04-28T18:20:45;99168.38;;;14.73;70.44
62011;BME280;47967;51.756;10.174;2023-04-28T18:24:47;99171.84;;;14.68;70.70
62011;BME280;47967;51.756;10.174;2023-04-28T18:28:52;99182.06;;;14.78;70.57
62011;BME280;47967;51.756;10.174;2023-04-28T18:32:54;99167.41;;;14.79;70.79
62011;BME280;47967;51.756;10.174;2023-04-28T18:36:57;99165.66;;;14.73;71.25
62011;BME280;47967;51.756;10.174;2023-04-28T18:41:00;99156.59;;;14.67;71.28
62011;BME280;47967;51.756;10.174;2023-04-28T18:45:05;99154.69;;;14.68;71.47
62011;BME280;47967;51.756;10.174;2023-04-28T18:49:08;99162.16;;;14.49;71.77
62011;BME280;47967;51.756;10.174;2023-04-28T18:53:11;99175.91;;;14.30;72.61
62011;BME280;47967;51.756;10.174;2023-04-28T18:57:14;99167.78;;;14.18;73.44
62011;BME280;47967;51.756;10.174;2023-04-28T19:01:18;99170.72;;;14.29;73.22
62011;BME280;47967;51.756;10.174;2023-04-28T19:05:21;99186.03;;;14.35;73.10
62011;BME280;47967;51.756;10.174;2023-04-28T19:09:24;99189.09;;;14.38;72.89
62011;BME280;47967;51.756;10.174;2023-04-28T19:13:26;99179.06;;;14.39;73.08
62011;BME280;47967;51.756;10.174;2023-04-28T19:17:30;99177.03;;;14.46;72.86
62011;BME280;47967;51.756;10.174;2023-04-28T19:21:33;99186.75;;;14.30;73.39
62011;BME280;47967;51.756;10.174;2023-04-28T19:25:36;99179.94;;;14.16;73.84
62011;BME280;47967;51.756;10.174;2023-04-28T19:29:39;99178.06;;;14.16;74.10
62011;BME280;47967;51.756;10.174;2023-04-28T19:33:43;99192.09;;;14.13;74.23
62011;BME280;47967;51.756;10.174;2023-04-28T19:37:46;99194.59;;;14.15;74.11
62011;BME280;47967;51.756;10.174;2023-04-28T19:41:50;99199.31;;;14.07;74.47
62011;BME280;47967;51.756;10.174;2023-04-28T19:45:54;99197.06;;;14.04;74.67
62011;BME280;47967;51.756;10.174;2023-04-28T19:49:59;99190.09;;;14.08;74.61
62011;BME280;47967;51.756;10.174;2023-04-28T19:54:01;99196.25;;;14.04;75.06
62011;BME280;47967;51.756;10.174;2023-04-28T19:58:04;99195.53;;;13.97;75.37
62011;BME280;47967;51.756;10.174;2023-04-28T20:02:07;99194.34;;;14.04;75.37
62011;BME280;47967;51.756;10.174;2023-04-28T20:06:15;99188.22;;;14.09;75.39
62011;BME280;47967;51.756;10.174;2023-04-28T20:10:17;99189.03;;;14.09;75.11
62011;BME280;47967;51.756;10.174;2023-04-28T20:14:21;99187.16;;;14.10;75.07
62011;BME280;47967;51.756;10.174;2023-04-28T20:18:23;99182.28;;;14.12;75.11
62011;BME280;47967;51.756;10.174;2023-04-28T20:22:27;99192.53;;;14.22;75.14
62011;BME280;47967;51.756;10.174;2023-04-28T20:26:30;99180.31;;;14.07;75.09
62011;BME280;47967;51.756;10.174;2023-04-28T20:30:32;99182.44;;;14.05;75.47
62011;BME280;47967;51.756;10.174;2023-04-28T20:34:35;99189.63;;;14.12;75.21
62011;BME280;47967;51.756;10.174;2023-04-28T20:38:40;99175.13;;;14.06;75.60
62011;BME280;47967;51.756;10.174;2023-04-28T20:42:43;99196.94;;;13.99;76.28
62011;BME280;47967;51.756;10.174;2023-04-28T20:46:46;99192.34;;;14.00;76.63
62011;BME280;47967;51.756;10.174;2023-04-28T20:50:49;99199.31;;;14.07;76.94
62011;BME280;47967;51.756;10.174;2023-04-28T20:54:55;99187.06;;;14.05;77.18
